Time;durP1;ratioP1;P1;durP2;ratioP2;P2;SDS_P1;SDS_P2;PMS_P1;PMS_P2;Temp;Humidity;BMP_temperature;BMP_pressure;BME280_temperature;BME280_humidity;BME280_pressure;Samples;Min_cycle;Max_cycle;Signal;HPM_P1;HPM_P2
2022/01/11 00:00:16;;;;;;;18.67;11.57;;;;;;;;;;4905608;29;20207;-79
2022/01/11 00:02:44;;;;;;;19.23;11.27;;;;;;;;;;4921573;29;20560;-79
2022/01/11 00:05:19;;;;;;;19.03;11.47;;;;;;;;;;4921479;29;20180;-79
2022/01/11 00:07:45;;;;;;;17.20;11.13;;;;;;;;;;4921317;29;20285;-79
2022/01/11 00:10:19;;;;;;;17.70;10.60;;;;;;;;;;4905133;29;20315;-80
2022/01/11 00:12:45;;;;;;;17.70;11.13;;;;;;;;;;4921229;29;20553;-79
2022/01/11 00:15:14;;;;;;;17.93;11.00;;;;;;;;;;4905381;29;20195;-79
2022/01/11 00:17:40;;;;;;;21.93;11.97;;;;;;;;;;4921248;29;20211;-79
2022/01/11 00:20:06;;;;;;;19.97;11.73;;;;;;;;;;4921396;29;20229;-79
2022/01/11 00:22:37;;;;;;;22.70;12.10;;;;;;;;;;4905522;29;20195;-79
2022/01/11 00:25:03;;;;;;;21.00;12.10;;;;;;;;;;4921652;29;20208;-81
2022/01/11 00:27:29;;;;;;;20.07;11.60;;;;;;;;;;4921015;29;20184;-80
2022/01/11 00:30:01;;;;;;;19.57;11.50;;;;;;;;;;4920887;29;20227;-79
2022/01/11 00:32:38;;;;;;;21.50;12.27;;;;;;;;;;4921899;29;20268;-79
2022/01/11 00:35:06;;;;;;;17.33;11.00;;;;;;;;;;4906649;29;20191;-79
2022/01/11 00:37:32;;;;;;;20.63;12.20;;;;;;;;;;4920751;29;20181;-79
2022/01/11 00:40:00;;;;;;;19.97;10.33;;;;;;;;;;4937715;29;20574;-79
2022/01/11 00:42:26;;;;;;;21.90;11.43;;;;;;;;;;4905320;29;20195;-79
2022/01/11 00:44:52;;;;;;;20.03;11.33;;;;;;;;;;4920839;29;20184;-79
2022/01/11 00:47:19;;;;;;;20.40;11.97;;;;;;;;;;4905525;29;20286;-79
2022/01/11 00:49:45;;;;;;;19.63;11.27;;;;;;;;;;4904922;29;20643;-79
2022/01/11 00:52:11;;;;;;;19.50;10.83;;;;;;;;;;4920540;29;20204;-79
2022/01/11 00:54:37;;;;;;;18.53;11.37;;;;;;;;;;4920310;29;20184;-79
2022/01/11 00:57:04;;;;;;;22.60;12.10;;;;;;;;;;4920697;29;20183;-79
2022/01/11 00:59:30;;;;;;;18.80;11.23;;;;;;;;;;4920706;29;20208;-79
2022/01/11 01:01:56;;;;;;;19.20;11.83;;;;;;;;;;4920334;29;20202;-79
2022/01/11 01:04:22;;;;;;;19.87;11.70;;;;;;;;;;4920154;29;20646;-80
2022/01/11 01:06:48;;;;;;;21.27;11.87;;;;;;;;;;4904547;29;20241;-80
2022/01/11 01:09:14;;;;;;;21.60;12.57;;;;;;;;;;4904312;29;20278;-79
2022/01/11 01:11:43;;;;;;;19.50;11.40;;;;;;;;;;4937483;29;20542;-80
2022/01/11 01:14:09;;;;;;;17.60;11.03;;;;;;;;;;4919918;29;20180;-79
2022/01/11 01:16:36;;;;;;;18.57;11.40;;;;;;;;;;4937069;29;20258;-79
2022/01/11 01:19:03;;;;;;;15.87;9.23;;;;;;;;;;4919747;29;20199;-79
2022/01/11 01:21:36;;;;;;;17.07;10.77;;;;;;;;;;4919430;29;20188;-80
2022/01/11 01:24:02;;;;;;;20.10;11.10;;;;;;;;;;4905580;29;20185;-79
2022/01/11 01:26:28;;;;;;;17.43;10.93;;;;;;;;;;4920106;29;20664;-79
2022/01/11 01:28:54;;;;;;;19.67;11.60;;;;;;;;;;4920375;29;20206;-79
2022/01/11 01:31:21;;;;;;;24.03;12.63;;;;;;;;;;4904345;29;20182;-81
2022/01/11 01:33:47;;;;;;;23.33;12.63;;;;;;;;;;4919616;29;20179;-80
2022/01/11 01:36:13;;;;;;;20.87;11.23;;;;;;;;;;4919788;29;20181;-79
2022/01/11 01:38:39;;;;;;;21.00;12.67;;;;;;;;;;4904436;29;20251;-80
2022/01/11 01:41:13;;;;;;;22.03;11.37;;;;;;;;;;4920054;29;20185;-79
2022/01/11 01:43:39;;;;;;;21.30;11.67;;;;;;;;;;4921225;29;20198;-79
2022/01/11 01:46:05;;;;;;;21.43;12.03;;;;;;;;;;4903843;29;20190;-79
2022/01/11 01:48:32;;;;;;;21.50;12.87;;;;;;;;;;4919489;29;20680;-79
2022/01/11 01:50:58;;;;;;;23.63;12.07;;;;;;;;;;4920064;29;20211;-79
2022/01/11 01:53:24;;;;;;;25.07;13.50;;;;;;;;;;4903747;29;20184;-79
2022/01/11 01:55:50;;;;;;;26.37;13.93;;;;;;;;;;4919940;29;20171;-79
2022/01/11 01:58:16;;;;;;;28.57;13.47;;;;;;;;;;4903968;29;20192;-79
2022/01/11 02:00:50;;;;;;;22.47;12.03;;;;;;;;;;4919748;29;20200;-79
2022/01/11 02:03:17;;;;;;;22.37;12.43;;;;;;;;;;4919346;29;20184;-79
2022/01/11 02:05:44;;;;;;;22.00;12.53;;;;;;;;;;4919815;29;20383;-81
2022/01/11 02:08:10;;;;;;;21.17;11.50;;;;;;;;;;4919573;29;20196;-79
2022/01/11 02:10:37;;;;;;;19.10;11.07;;;;;;;;;;4919628;29;20226;-79
2022/01/11 02:13:04;;;;;;;20.47;11.27;;;;;;;;;;4903929;29;20200;-79
2022/01/11 02:15:30;;;;;;;23.07;12.07;;;;;;;;;;4919046;29;20235;-79
2022/01/11 02:18:06;;;;;;;24.50;13.17;;;;;;;;;;4919423;29;20180;-79
2022/01/11 02:20:32;;;;;;;26.97;13.30;;;;;;;;;;4919718;29;20218;-80
2022/01/11 02:22:58;;;;;;;28.77;13.30;;;;;;;;;;4931892;23;20234;-77
2022/01/11 02:25:24;;;;;;;24.53;12.90;;;;;;;;;;4935537;29;20178;-81
2022/01/11 02:27:50;;;;;;;30.70;14.17;;;;;;;;;;4935094;29;20190;-80
2022/01/11 02:30:16;;;;;;;30.33;13.83;;;;;;;;;;4934648;29;20638;-79
2022/01/11 02:32:52;;;;;;;35.37;14.63;;;;;;;;;;4918046;29;20259;-81
2022/01/11 02:35:18;;;;;;;33.97;15.43;;;;;;;;;;4919592;29;20187;-78
2022/01/11 02:37:44;;;;;;;31.00;15.37;;;;;;;;;;4919673;29;20181;-78
2022/01/11 02:40:10;;;;;;;34.60;15.87;;;;;;;;;;4919631;29;20209;-80
2022/01/11 02:42:36;;;;;;;33.17;15.33;;;;;;;;;;4919657;29;20203;-79
2022/01/11 02:45:03;;;;;;;33.37;15.53;;;;;;;;;;4919399;29;20196;-78
2022/01/11 02:47:29;;;;;;;34.20;15.43;;;;;;;;;;4919278;29;20192;-78
2022/01/11 02:49:55;;;;;;;26.97;14.17;;;;;;;;;;4919531;29;20216;-79
2022/01/11 02:52:21;;;;;;;29.10;14.30;;;;;;;;;;4919287;29;20252;-78
2022/01/11 02:54:47;;;;;;;32.67;15.70;;;;;;;;;;4918872;29;20639;-78
2022/01/11 02:57:13;;;;;;;28.17;14.67;;;;;;;;;;4919651;29;20193;-79
2022/01/11 02:59:39;;;;;;;26.77;15.00;;;;;;;;;;4919024;29;20188;-79
2022/01/11 03:02:05;;;;;;;28.73;15.17;;;;;;;;;;4919107;29;20285;-79
2022/01/11 03:04:33;;;;;;;28.57;14.63;;;;;;;;;;4919021;29;20671;-79
2022/01/11 03:06:59;;;;;;;26.43;14.13;;;;;;;;;;4919315;29;20184;-80
2022/01/11 03:09:28;;;;;;;26.10;13.97;;;;;;;;;;4919019;29;20211;-81
2022/01/11 03:11:55;;;;;;;23.10;13.90;;;;;;;;;;4919254;29;20236;-79
2022/01/11 03:14:21;;;;;;;25.37;15.33;;;;;;;;;;4918775;29;20185;-79
2022/01/11 03:16:47;;;;;;;24.10;13.57;;;;;;;;;;4919080;29;20194;-79
2022/01/11 03:19:13;;;;;;;28.07;15.17;;;;;;;;;;4919337;29;20200;-78
2022/01/11 03:21:39;;;;;;;27.00;14.63;;;;;;;;;;4919183;29;20283;-79
2022/01/11 03:24:05;;;;;;;28.00;14.83;;;;;;;;;;4918856;29;20284;-78
2022/01/11 03:26:31;;;;;;;27.77;15.30;;;;;;;;;;4919818;29;20181;-79
2022/01/11 03:28:57;;;;;;;25.50;14.57;;;;;;;;;;4919048;29;20685;-79
2022/01/11 03:31:24;;;;;;;25.73;15.13;;;;;;;;;;4919156;29;20276;-79
2022/01/11 03:33:50;;;;;;;28.00;15.20;;;;;;;;;;4919354;29;20209;-79
2022/01/11 03:36:16;;;;;;;28.03;14.93;;;;;;;;;;4918842;29;20208;-79
2022/01/11 03:38:42;;;;;;;27.67;14.93;;;;;;;;;;4918781;29;20272;-79
2022/01/11 03:41:08;;;;;;;25.77;14.13;;;;;;;;;;4918618;29;20185;-78
2022/01/11 03:43:34;;;;;;;36.60;16.63;;;;;;;;;;4917644;29;20298;-78
2022/01/11 03:46:00;;;;;;;27.17;15.13;;;;;;;;;;4918644;29;20201;-79
2022/01/11 03:48:26;;;;;;;29.60;16.10;;;;;;;;;;4918841;29;20177;-78
2022/01/11 03:50:54;;;;;;;31.00;15.30;;;;;;;;;;4918413;29;20227;-78
2022/01/11 03:53:25;;;;;;;30.30;16.37;;;;;;;;;;4918204;29;20201;-79
2022/01/11 03:58:17;;;;;;;34.17;16.47;;;;;;;;;;4918809;29;20233;-78
2022/01/11 04:00:44;;;;;;;31.63;15.93;;;;;;;;;;4918177;29;20227;-79
2022/01/11 04:03:11;;;;;;;30.83;16.23;;;;;;;;;;4918137;29;20212;-79
2022/01/11 04:05:38;;;;;;;40.10;16.87;;;;;;;;;;4918018;29;20728;-78
2022/01/11 04:08:04;;;;;;;34.93;16.33;;;;;;;;;;4917979;29;20195;-78
2022/01/11 04:10:30;;;;;;;42.00;16.80;;;;;;;;;;4918455;29;20623;-78
2022/01/11 04:12:56;;;;;;;41.43;16.63;;;;;;;;;;4918080;29;20210;-78
2022/01/11 04:15:22;;;;;;;42.07;17.50;;;;;;;;;;4917483;29;20182;-78
2022/01/11 04:17:48;;;;;;;38.40;15.57;;;;;;;;;;4917963;29;20190;-79
2022/01/11 04:20:14;;;;;;;46.17;15.23;;;;;;;;;;4917607;29;20191;-78
2022/01/11 04:22:41;;;;;;;33.57;15.13;;;;;;;;;;4918061;29;20225;-80
2022/01/11 04:25:07;;;;;;;38.77;15.37;;;;;;;;;;4917442;29;20189;-78
2022/01/11 04:27:33;;;;;;;31.73;13.70;;;;;;;;;;4917635;29;20275;-78
2022/01/11 04:29:59;;;;;;;35.23;14.27;;;;;;;;;;4917800;29;20242;-78
2022/01/11 04:32:26;;;;;;;31.53;14.20;;;;;;;;;;4917661;29;20213;-78
2022/01/11 04:34:53;;;;;;;30.73;14.20;;;;;;;;;;4917485;29;20193;-78
2022/01/11 04:37:19;;;;;;;30.80;14.80;;;;;;;;;;4917450;29;20188;-79
2022/01/11 04:39:45;;;;;;;30.23;14.50;;;;;;;;;;4917542;29;20277;-78
2022/01/11 04:42:11;;;;;;;33.47;15.80;;;;;;;;;;4917072;29;20196;-79
2022/01/11 04:44:37;;;;;;;28.73;14.97;;;;;;;;;;4917322;29;20188;-78
2022/01/11 04:47:03;;;;;;;28.43;14.60;;;;;;;;;;4917408;29;20188;-79
2022/01/11 04:49:29;;;;;;;29.30;14.60;;;;;;;;;;4917190;29;20202;-78
2022/01/11 04:51:56;;;;;;;34.73;15.37;;;;;;;;;;4916841;29;20566;-78
2022/01/11 04:54:22;;;;;;;33.40;15.50;;;;;;;;;;4916902;29;20192;-79
2022/01/11 04:56:48;;;;;;;31.87;15.70;;;;;;;;;;4917133;29;20239;-78
2022/01/11 04:59:14;;;;;;;27.27;13.83;;;;;;;;;;4917175;29;20235;-78
2022/01/11 05:01:41;;;;;;;27.53;15.37;;;;;;;;;;4917113;29;20190;-78
2022/01/11 05:04:07;;;;;;;28.57;15.00;;;;;;;;;;4916760;29;20446;-78
2022/01/11 05:06:33;;;;;;;27.83;14.43;;;;;;;;;;4917056;29;20208;-78
2022/01/11 05:08:59;;;;;;;29.50;14.27;;;;;;;;;;4917768;29;20233;-81
2022/01/11 05:11:25;;;;;;;28.57;14.60;;;;;;;;;;4916800;29;20268;-78
2022/01/11 05:13:51;;;;;;;32.37;15.67;;;;;;;;;;4916543;29;20211;-80
2022/01/11 05:16:17;;;;;;;34.43;15.50;;;;;;;;;;4916804;29;20266;-80
2022/01/11 05:18:43;;;;;;;34.27;15.67;;;;;;;;;;4916471;29;20218;-80
2022/01/11 05:21:09;;;;;;;36.27;15.70;;;;;;;;;;4917629;29;20619;-80
2022/01/11 05:23:35;;;;;;;32.47;15.10;;;;;;;;;;4916516;29;20212;-80
2022/01/11 05:26:02;;;;;;;28.63;15.30;;;;;;;;;;4916692;29;20185;-80
2022/01/11 05:28:29;;;;;;;29.23;15.80;;;;;;;;;;4916378;29;20241;-78
2022/01/11 05:30:55;;;;;;;28.40;17.40;;;;;;;;;;4916458;29;20224;-78
2022/01/11 05:33:21;;;;;;;30.03;16.03;;;;;;;;;;4917243;29;20193;-78
2022/01/11 05:35:47;;;;;;;28.17;15.47;;;;;;;;;;4916219;29;20242;-78
2022/01/11 05:38:14;;;;;;;29.70;14.57;;;;;;;;;;4916498;29;20554;-79
2022/01/11 05:40:40;;;;;;;24.60;14.33;;;;;;;;;;4916197;29;20206;-80
2022/01/11 05:43:06;;;;;;;28.47;14.37;;;;;;;;;;4915887;29;20695;-81
2022/01/11 05:45:32;;;;;;;25.97;14.97;;;;;;;;;;4918020;29;20260;-80
2022/01/11 05:47:58;;;;;;;28.50;15.03;;;;;;;;;;4916429;29;20192;-80
2022/01/11 05:50:24;;;;;;;27.63;16.03;;;;;;;;;;4916329;29;20311;-81
2022/01/11 05:52:50;;;;;;;27.27;15.60;;;;;;;;;;4915873;29;20574;-79
2022/01/11 05:55:17;;;;;;;28.30;15.07;;;;;;;;;;4916100;29;20283;-80
2022/01/11 05:57:43;;;;;;;25.40;14.47;;;;;;;;;;4917441;29;20195;-78
2022/01/11 06:00:12;;;;;;;26.60;14.37;;;;;;;;;;4916021;29;20184;-78
2022/01/11 06:02:41;;;;;;;23.97;14.70;;;;;;;;;;4916113;29;20260;-79
2022/01/11 06:05:07;;;;;;;21.80;13.60;;;;;;;;;;4917251;29;20180;-78
2022/01/11 06:07:34;;;;;;;20.63;12.43;;;;;;;;;;4915846;29;20221;-78
2022/01/11 06:09:59;;;;;;;22.03;13.43;;;;;;;;;;4915733;29;20216;-83
2022/01/11 06:12:25;;;;;;;22.47;13.77;;;;;;;;;;4915374;29;20205;-83
2022/01/11 06:14:51;;;;;;;23.30;14.40;;;;;;;;;;4914972;29;20726;-83
2022/01/11 06:17:17;;;;;;;27.97;15.03;;;;;;;;;;4916390;29;20183;-82
2022/01/11 06:19:43;;;;;;;27.30;15.00;;;;;;;;;;4915753;29;20187;-82
2022/01/11 06:22:10;;;;;;;26.63;15.00;;;;;;;;;;4915599;29;20239;-83
2022/01/11 06:24:36;;;;;;;27.47;15.13;;;;;;;;;;4915360;29;20204;-83
2022/01/11 06:27:02;;;;;;;24.53;14.63;;;;;;;;;;4915241;29;20178;-83
2022/01/11 06:29:28;;;;;;;25.07;14.53;;;;;;;;;;4915068;29;20628;-83
2022/01/11 06:31:54;;;;;;;23.73;13.37;;;;;;;;;;4915067;29;20275;-83
2022/01/11 06:34:20;;;;;;;24.00;14.43;;;;;;;;;;4915324;29;20332;-83
2022/01/11 06:36:46;;;;;;;28.97;15.23;;;;;;;;;;4914857;29;20234;-83
2022/01/11 06:39:12;;;;;;;34.57;15.60;;;;;;;;;;4915048;29;20565;-82
2022/01/11 06:41:38;;;;;;;29.00;15.50;;;;;;;;;;4915096;29;20282;-81
2022/01/11 06:44:05;;;;;;;30.63;16.13;;;;;;;;;;4914748;29;20298;-82
2022/01/11 06:46:32;;;;;;;30.77;15.17;;;;;;;;;;4914891;29;20199;-83
2022/01/11 06:48:59;;;;;;;32.47;15.03;;;;;;;;;;4914933;29;20566;-83
2022/01/11 06:51:26;;;;;;;18.43;10.07;;;;;;;;;;4915054;29;20185;-83
2022/01/11 06:53:52;;;;;;;35.83;16.97;;;;;;;;;;4914997;29;20208;-83
2022/01/11 06:56:20;;;;;;;35.43;17.97;;;;;;;;;;4914832;29;20181;-82
2022/01/11 06:58:46;;;;;;;34.60;17.20;;;;;;;;;;4915179;29;20200;-82
2022/01/11 07:01:12;;;;;;;34.47;16.17;;;;;;;;;;4915100;29;20190;-83
2022/01/11 07:03:38;;;;;;;32.10;15.87;;;;;;;;;;4915378;29;20575;-83
2022/01/11 07:06:04;;;;;;;28.53;14.20;;;;;;;;;;4915538;29;20185;-83
2022/01/11 07:08:30;;;;;;;30.20;15.63;;;;;;;;;;4915146;29;20180;-83
2022/01/11 07:10:56;;;;;;;34.70;15.77;;;;;;;;;;4915015;29;20356;-81
2022/01/11 07:13:23;;;;;;;35.77;15.47;;;;;;;;;;4914911;29;20245;-83
2022/01/11 07:15:49;;;;;;;31.83;16.40;;;;;;;;;;4914390;29;20180;-82
2022/01/11 07:18:15;;;;;;;36.00;17.20;;;;;;;;;;4914906;29;20183;-83
2022/01/11 07:20:44;;;;;;;37.03;16.50;;;;;;;;;;4917717;29;20202;-83
2022/01/11 07:23:11;;;;;;;32.27;17.00;;;;;;;;;;4917876;29;20217;-83
2022/01/11 07:25:37;;;;;;;35.70;16.70;;;;;;;;;;4917889;29;20191;-82
2022/01/11 07:28:03;;;;;;;32.97;16.57;;;;;;;;;;4917421;29;20191;-82
2022/01/11 07:30:29;;;;;;;30.63;15.03;;;;;;;;;;4917643;29;20243;-81
2022/01/11 07:32:56;;;;;;;29.33;17.33;;;;;;;;;;4917681;29;20244;-82
2022/01/11 07:35:23;;;;;;;31.27;17.23;;;;;;;;;;4917742;29;20640;-82
2022/01/11 07:37:50;;;;;;;32.40;16.83;;;;;;;;;;4918216;29;20678;-83
2022/01/11 07:40:16;;;;;;;30.10;16.67;;;;;;;;;;4917511;29;20189;-82
2022/01/11 07:42:42;;;;;;;27.77;14.30;;;;;;;;;;4917393;29;20208;-80
2022/01/11 07:45:08;;;;;;;25.93;13.87;;;;;;;;;;4917338;29;20193;-81
2022/01/11 07:47:34;;;;;;;32.10;16.83;;;;;;;;;;4917222;29;20201;-80
2022/01/11 07:50:00;;;;;;;26.23;14.90;;;;;;;;;;4917254;29;20249;-81
2022/01/11 07:52:26;;;;;;;24.40;14.10;;;;;;;;;;4917154;29;20226;-81
2022/01/11 07:54:52;;;;;;;24.73;14.30;;;;;;;;;;4916842;29;20182;-81
2022/01/11 07:57:19;;;;;;;22.83;14.03;;;;;;;;;;4916923;29;20278;-82
2022/01/11 07:59:45;;;;;;;21.83;13.07;;;;;;;;;;4917041;29;20253;-83
2022/01/11 08:02:11;;;;;;;23.30;13.47;;;;;;;;;;4916888;29;20186;-82
2022/01/11 08:04:37;;;;;;;22.80;13.73;;;;;;;;;;4916615;29;20179;-82
2022/01/11 08:07:04;;;;;;;26.27;14.63;;;;;;;;;;4917460;29;20186;-81
2022/01/11 08:09:30;;;;;;;21.90;13.73;;;;;;;;;;4917084;29;20292;-81
2022/01/11 08:11:58;;;;;;;22.73;13.90;;;;;;;;;;4917106;29;20300;-83
2022/01/11 08:14:24;;;;;;;26.20;14.87;;;;;;;;;;4916895;29;20175;-83
2022/01/11 08:16:50;;;;;;;24.27;14.23;;;;;;;;;;4917143;29;20210;-83
2022/01/11 08:19:17;;;;;;;25.23;14.20;;;;;;;;;;4916736;29;20182;-82
2022/01/11 08:21:43;;;;;;;26.53;14.17;;;;;;;;;;4917090;29;20271;-83
2022/01/11 08:24:09;;;;;;;25.57;14.60;;;;;;;;;;4940775;23;20240;-86
2022/01/11 08:26:35;;;;;;;25.37;14.50;;;;;;;;;;4923982;29;20211;-84
2022/01/11 08:29:01;;;;;;;24.43;14.50;;;;;;;;;;4939557;28;20183;-83
2022/01/11 08:31:27;;;;;;;24.47;13.63;;;;;;;;;;4939628;28;20264;-83
2022/01/11 08:33:53;;;;;;;23.97;13.63;;;;;;;;;;4956771;28;20259;-82
2022/01/11 08:36:19;;;;;;;27.10;15.37;;;;;;;;;;4923697;29;20192;-83
2022/01/11 08:38:45;;;;;;;25.47;14.63;;;;;;;;;;4939391;28;20667;-84
2022/01/11 08:41:11;;;;;;;21.90;14.07;;;;;;;;;;4940187;28;20190;-81
2022/01/11 08:43:37;;;;;;;25.40;15.43;;;;;;;;;;4956505;28;20200;-83
2022/01/11 08:46:04;;;;;;;33.00;19.30;;;;;;;;;;4939259;28;20185;-83
2022/01/11 08:48:31;;;;;;;23.23;14.27;;;;;;;;;;4956801;28;20180;-83
2022/01/11 08:50:57;;;;;;;22.60;13.27;;;;;;;;;;4939403;29;20200;-84
2022/01/11 08:53:23;;;;;;;21.20;13.50;;;;;;;;;;4924327;29;20203;-84
2022/01/11 08:55:50;;;;;;;19.37;11.87;;;;;;;;;;4939443;28;20335;-82
2022/01/11 08:58:16;;;;;;;20.30;12.87;;;;;;;;;;4924183;29;20229;-83
2022/01/11 09:00:43;;;;;;;22.17;13.33;;;;;;;;;;4939688;28;20191;-82
2022/01/11 09:03:23;;;;;;;24.27;13.03;;;;;;;;;;4939412;28;20206;-81
2022/01/11 09:05:49;;;;;;;23.30;12.30;;;;;;;;;;4924625;29;20577;-82
2022/01/11 09:08:15;;;;;;;20.43;12.97;;;;;;;;;;4939928;29;20269;-81
2022/01/11 09:10:41;;;;;;;22.93;13.13;;;;;;;;;;4939918;28;20677;-81
2022/01/11 09:13:07;;;;;;;19.17;12.43;;;;;;;;;;4924053;29;20258;-82
2022/01/11 09:15:34;;;;;;;24.23;14.23;;;;;;;;;;4923050;29;20227;-84
2022/01/11 09:18:00;;;;;;;21.70;13.00;;;;;;;;;;4939183;29;20179;-81
2022/01/11 09:20:26;;;;;;;22.20;13.53;;;;;;;;;;4923227;29;20188;-82
2022/01/11 09:22:52;;;;;;;21.67;14.07;;;;;;;;;;4938956;28;20219;-80
2022/01/11 09:25:18;;;;;;;25.10;14.57;;;;;;;;;;4923627;29;20180;-81
2022/01/11 09:27:44;;;;;;;26.63;14.90;;;;;;;;;;4939311;28;20181;-82
2022/01/11 09:30:12;;;;;;;22.17;13.73;;;;;;;;;;4939377;29;20231;-83
2022/01/11 09:32:38;;;;;;;28.53;17.03;;;;;;;;;;4923149;29;20768;-82
2022/01/11 09:35:05;;;;;;;26.60;14.03;;;;;;;;;;4938604;29;20176;-81
2022/01/11 09:37:32;;;;;;;21.13;12.97;;;;;;;;;;4939056;28;20175;-82
2022/01/11 09:39:58;;;;;;;23.20;13.33;;;;;;;;;;4923112;29;20587;-82
2022/01/11 09:42:24;;;;;;;22.77;12.53;;;;;;;;;;4922438;29;20187;-83
2022/01/11 09:44:50;;;;;;;22.97;13.33;;;;;;;;;;4922778;29;20212;-82
2022/01/11 09:47:16;;;;;;;25.63;14.17;;;;;;;;;;4938611;28;20176;-82
2022/01/11 09:49:43;;;;;;;19.30;11.57;;;;;;;;;;4923393;29;20215;-81
2022/01/11 09:52:10;;;;;;;23.47;13.00;;;;;;;;;;4939388;28;20200;-82
2022/01/11 09:54:37;;;;;;;17.53;11.07;;;;;;;;;;4939198;29;20287;-81
2022/01/11 09:57:03;;;;;;;23.17;12.90;;;;;;;;;;4938646;28;20515;-82
2022/01/11 09:59:30;;;;;;;21.27;12.07;;;;;;;;;;4923468;29;20191;-81
2022/01/11 10:02:07;;;;;;;19.93;11.70;;;;;;;;;;4938487;28;20191;-82
2022/01/11 10:04:35;;;;;;;20.63;11.47;;;;;;;;;;4923096;29;20711;-80
2022/01/11 10:07:03;;;;;;;20.00;12.13;;;;;;;;;;4923862;29;20187;-80
2022/01/11 10:09:30;;;;;;;19.90;11.83;;;;;;;;;;4923926;29;20697;-81
2022/01/11 10:11:57;;;;;;;22.57;12.40;;;;;;;;;;4939361;29;20179;-81
2022/01/11 10:14:26;;;;;;;23.10;13.43;;;;;;;;;;4923379;29;20195;-80
2022/01/11 10:17:15;;;;;;;23.47;12.83;;;;;;;;;;4941418;28;20183;-83
2022/01/11 10:19:46;;;;;;;20.70;12.17;;;;;;;;;;4938143;29;20224;-83
2022/01/11 10:22:14;;;;;;;22.53;12.60;;;;;;;;;;4922680;29;20263;-78
2022/01/11 10:24:42;;;;;;;21.37;12.73;;;;;;;;;;4937745;29;20686;-81
2022/01/11 10:27:21;;;;;;;20.57;11.93;;;;;;;;;;4922325;29;20225;-81
2022/01/11 10:29:51;;;;;;;23.57;12.53;;;;;;;;;;4937843;29;20207;-81
2022/01/11 10:32:17;;;;;;;23.07;12.17;;;;;;;;;;4938032;29;20181;-81
2022/01/11 10:34:47;;;;;;;22.70;12.50;;;;;;;;;;4938573;28;20290;-81
2022/01/11 10:37:13;;;;;;;24.73;12.50;;;;;;;;;;4923004;29;20397;-81
2022/01/11 10:39:41;;;;;;;21.43;12.47;;;;;;;;;;4938348;28;20188;-83
2022/01/11 10:42:08;;;;;;;20.47;12.63;;;;;;;;;;4937797;28;20189;-83
2022/01/11 10:44:44;;;;;;;22.70;12.27;;;;;;;;;;4937656;28;20203;-83
2022/01/11 10:47:10;;;;;;;21.30;11.63;;;;;;;;;;4921871;29;20200;-82
2022/01/11 10:49:36;;;;;;;19.93;11.53;;;;;;;;;;4937947;28;20227;-83
2022/01/11 10:52:21;;;;;;;20.93;11.67;;;;;;;;;;4922132;29;20177;-84
2022/01/11 10:54:47;;;;;;;24.10;11.97;;;;;;;;;;4939219;29;20672;-83
2022/01/11 10:57:15;;;;;;;21.17;11.30;;;;;;;;;;4925824;29;20189;-82
2022/01/11 10:59:41;;;;;;;16.60;10.13;;;;;;;;;;4926138;29;20659;-84
2022/01/11 11:05:23;;;;;;;1020.00;750.80;;;;;;;;;;4958113;29;20167;-79
2022/01/11 11:08:12;;;;;;;58.27;33.60;;;;;;;;;;4940923;29;20223;-79
2022/01/11 11:10:38;;;;;;;18.00;12.33;;;;;;;;;;4931418;29;20217;-83
2022/01/11 11:13:06;;;;;;;14.27;8.53;;;;;;;;;;4941142;28;20202;-83
2022/01/11 11:15:33;;;;;;;166.47;115.33;;;;;;;;;;4940896;29;20220;-82
2022/01/11 11:17:59;;;;;;;99.07;63.57;;;;;;;;;;4924921;29;20186;-80
2022/01/11 11:20:26;;;;;;;60.60;38.20;;;;;;;;;;4924934;29;20225;-81
2022/01/11 11:22:52;;;;;;;27.80;18.33;;;;;;;;;;4924838;28;20214;-81
2022/01/11 11:25:18;;;;;;;24.27;15.53;;;;;;;;;;4940642;28;20177;-80
2022/01/11 11:27:44;;;;;;;22.97;13.07;;;;;;;;;;4940898;28;20182;-80
2022/01/11 11:30:10;;;;;;;16.60;11.30;;;;;;;;;;4924480;29;20215;-80
2022/01/11 11:32:37;;;;;;;16.47;10.27;;;;;;;;;;4924861;29;20192;-80
2022/01/11 11:35:03;;;;;;;15.40;10.03;;;;;;;;;;4940614;28;20223;-80
2022/01/11 11:37:31;;;;;;;15.57;9.17;;;;;;;;;;4924897;29;20205;-82
2022/01/11 11:39:58;;;;;;;14.77;9.80;;;;;;;;;;4940434;29;20216;-82
2022/01/11 11:42:25;;;;;;;47.07;28.90;;;;;;;;;;4924835;29;20188;-77
2022/01/11 11:44:51;;;;;;;29.47;19.87;;;;;;;;;;4939913;28;20207;-77
2022/01/11 11:47:27;;;;;;;20.90;15.03;;;;;;;;;;4924393;29;20290;-78
2022/01/11 11:49:55;;;;;;;20.60;11.67;;;;;;;;;;4940293;28;20197;-78
2022/01/11 11:52:22;;;;;;;14.43;9.33;;;;;;;;;;4940713;28;20274;-84
2022/01/11 11:54:49;;;;;;;14.00;9.30;;;;;;;;;;4940553;28;20204;-84
2022/01/11 11:57:16;;;;;;;14.07;9.13;;;;;;;;;;4940677;29;20271;-84
2022/01/11 11:59:43;;;;;;;16.20;10.37;;;;;;;;;;4940398;29;20179;-84
2022/01/11 12:02:10;;;;;;;15.80;9.50;;;;;;;;;;4924983;29;20554;-84
2022/01/11 12:04:36;;;;;;;12.17;8.23;;;;;;;;;;4939785;29;20205;-83
2022/01/11 12:07:21;;;;;;;14.97;8.67;;;;;;;;;;4940557;29;20180;-84
2022/01/11 12:09:51;;;;;;;13.37;8.50;;;;;;;;;;4940396;29;20679;-84
2022/01/11 12:12:37;;;;;;;13.23;8.50;;;;;;;;;;4925227;29;20215;-83
2022/01/11 12:15:23;;;;;;;11.10;7.57;;;;;;;;;;4940079;28;20230;-83
2022/01/11 12:17:49;;;;;;;11.43;7.20;;;;;;;;;;4940353;28;20546;-83
2022/01/11 12:20:34;;;;;;;12.27;7.27;;;;;;;;;;4940255;28;20194;-83
2022/01/11 12:23:00;;;;;;;12.93;8.07;;;;;;;;;;4940119;28;20238;-83
2022/01/11 12:25:27;;;;;;;11.73;7.47;;;;;;;;;;4924289;29;20627;-83
2022/01/11 12:28:00;;;;;;;10.80;7.27;;;;;;;;;;4924518;29;20186;-83
2022/01/11 12:30:26;;;;;;;12.93;7.50;;;;;;;;;;4924331;29;20214;-83
2022/01/11 12:33:11;;;;;;;10.23;6.60;;;;;;;;;;4924470;29;20208;-83
2022/01/11 12:35:51;;;;;;;11.13;6.73;;;;;;;;;;4939656;28;20291;-84
2022/01/11 12:38:17;;;;;;;9.40;6.63;;;;;;;;;;4939974;29;20182;-83
2022/01/11 12:40:44;;;;;;;12.13;8.87;;;;;;;;;;4939692;28;20220;-83
2022/01/11 12:43:18;;;;;;;16.70;9.80;;;;;;;;;;4923807;29;20206;-83
2022/01/11 12:46:03;;;;;;;11.17;7.37;;;;;;;;;;4939473;29;20178;-83
2022/01/11 12:48:45;;;;;;;11.97;8.17;;;;;;;;;;4939214;29;20264;-82
2022/01/11 12:51:12;;;;;;;12.00;7.30;;;;;;;;;;4939369;29;20231;-83
2022/01/11 12:53:38;;;;;;;10.63;7.27;;;;;;;;;;4938795;28;20207;-83
2022/01/11 12:56:04;;;;;;;10.30;6.80;;;;;;;;;;4923042;29;20232;-83
2022/01/11 12:58:30;;;;;;;11.03;6.63;;;;;;;;;;4923346;29;20552;-83
2022/01/11 13:00:56;;;;;;;9.80;6.20;;;;;;;;;;4938978;28;20389;-85
2022/01/11 13:03:23;;;;;;;9.60;6.20;;;;;;;;;;4922982;29;20229;-85
2022/01/11 13:05:54;;;;;;;9.93;6.10;;;;;;;;;;4938954;28;20188;-85
2022/01/11 13:08:26;;;;;;;9.27;6.30;;;;;;;;;;4923421;29;20189;-85
2022/01/11 13:10:54;;;;;;;5.63;4.23;;;;;;;;;;4922769;29;20570;-85
2022/01/11 13:13:25;;;;;;;4.07;2.97;;;;;;;;;;4938417;28;20225;-85
2022/01/11 13:15:51;;;;;;;7.80;5.60;;;;;;;;;;4938546;28;20267;-84
2022/01/11 13:18:17;;;;;;;4.27;2.90;;;;;;;;;;4938183;28;20178;-82
2022/01/11 13:20:45;;;;;;;4.90;3.60;;;;;;;;;;4938786;28;20244;-83
2022/01/11 13:23:18;;;;;;;7.57;5.50;;;;;;;;;;4922318;29;20251;-85
2022/01/11 13:25:49;;;;;;;3.37;2.10;;;;;;;;;;4923162;29;20216;-86
2022/01/11 13:28:16;;;;;;;2.53;2.00;;;;;;;;;;4922478;29;20632;-84
2022/01/11 13:30:48;;;;;;;1.93;1.73;;;;;;;;;;4938545;28;20215;-84
2022/01/11 13:33:25;;;;;;;2.23;1.80;;;;;;;;;;4922712;29;20205;-84
2022/01/11 13:35:51;;;;;;;3.33;2.43;;;;;;;;;;4922587;29;20208;-84
2022/01/11 13:38:18;;;;;;;6.80;4.03;;;;;;;;;;4938172;28;20180;-84
2022/01/11 13:40:45;;;;;;;6.27;3.57;;;;;;;;;;4922672;29;20181;-84
2022/01/11 13:43:13;;;;;;;2.70;2.10;;;;;;;;;;4938298;28;20606;-84
2022/01/11 13:45:40;;;;;;;3.33;2.87;;;;;;;;;;4938068;29;20185;-84
2022/01/11 13:48:11;;;;;;;2.67;2.23;;;;;;;;;;4922659;29;20192;-83
2022/01/11 13:50:51;;;;;;;3.50;2.17;;;;;;;;;;4937765;28;20236;-85
2022/01/11 13:53:31;;;;;;;2.43;1.90;;;;;;;;;;4921097;29;20750;-84
2022/01/11 13:56:02;;;;;;;5.63;3.97;;;;;;;;;;4936212;28;20181;-84
2022/01/11 13:58:29;;;;;;;2.97;1.90;;;;;;;;;;4921095;29;20184;-84
2022/01/11 14:00:56;;;;;;;3.57;1.90;;;;;;;;;;4937454;29;20184;-84
2022/01/11 14:03:22;;;;;;;2.50;2.20;;;;;;;;;;4936962;28;20240;-84
2022/01/11 14:05:48;;;;;;;3.67;2.57;;;;;;;;;;4921746;29;20214;-84
2022/01/11 14:08:14;;;;;;;3.17;2.57;;;;;;;;;;4921635;29;20247;-84
2022/01/11 14:10:52;;;;;;;4.20;3.20;;;;;;;;;;4937322;28;20212;-84
2022/01/11 14:13:18;;;;;;;3.40;3.10;;;;;;;;;;4922952;29;20212;-84
2022/01/11 14:15:45;;;;;;;3.37;2.60;;;;;;;;;;4921461;29;20180;-84
2022/01/11 14:18:12;;;;;;;3.30;2.60;;;;;;;;;;4937141;28;20231;-84
2022/01/11 14:20:38;;;;;;;4.00;2.80;;;;;;;;;;4922186;29;20185;-84
2022/01/11 14:23:12;;;;;;;4.27;3.00;;;;;;;;;;4941392;23;20250;-84
2022/01/11 14:25:39;;;;;;;3.73;2.73;;;;;;;;;;4934199;29;20264;-84
2022/01/11 14:28:13;;;;;;;3.17;2.43;;;;;;;;;;4935296;29;20174;-84